Time;durP1;ratioP1;P1;durP2;ratioP2;P2;SDS_P1;SDS_P2;PMS_P1;PMS_P2;Temp;Humidity;BMP_temperature;BMP_pressure;BME280_temperature;BME280_humidity;BME280_pressure;Samples;Min_cycle;Max_cycle;Signal;HPM_P1;HPM_P2
2022/09/18 00:01:09;;;;;;;7.03;3.08;;;;;;;18.17;100.00;93450.06;5153973;27;20210;-76
2022/09/18 00:03:36;;;;;;;3.67;2.87;;;;;;;17.97;100.00;93469.66;5140706;27;20596;-77
2022/09/18 00:06:07;;;;;;;4.70;2.90;;;;;;;17.68;100.00;93470.97;5153289;27;20229;-77
2022/09/18 00:08:34;;;;;;;6.57;3.20;;;;;;;17.47;100.00;93486.28;5141078;27;20203;-77
2022/09/18 00:11:05;;;;;;;6.00;2.90;;;;;;;17.16;100.00;93501.00;5136758;27;20217;-76
2022/09/18 00:13:33;;;;;;;3.90;2.90;;;;;;;16.92;100.00;93495.84;5146696;27;20263;-77
2022/09/18 00:16:00;;;;;;;4.30;2.40;;;;;;;16.69;100.00;93502.72;5151901;27;20586;-77
2022/09/18 00:18:27;;;;;;;5.73;1.90;;;;;;;16.31;100.00;93503.72;5153592;27;20199;-77
2022/09/18 00:20:54;;;;;;;9.83;1.90;;;;;;;15.82;100.00;93486.44;5153841;27;20198;-78
2022/09/18 00:23:21;;;;;;;4.27;1.80;;;;;;;15.58;100.00;93514.50;5153684;27;20198;-78
2022/09/18 00:25:47;;;;;;;1.83;1.70;;;;;;;15.35;100.00;93523.03;5153775;27;20745;-77
2022/09/18 00:28:14;;;;;;;1.80;1.50;;;;;;;15.11;100.00;93525.56;5153793;27;20218;-77
2022/09/18 00:30:42;;;;;;;3.10;1.60;;;;;;;15.08;100.00;93525.34;5153063;27;20205;-77
2022/09/18 00:33:09;;;;;;;2.40;1.50;;;;;;;14.86;100.00;93553.75;5153553;27;20205;-78
2022/09/18 00:35:41;;;;;;;4.80;1.10;;;;;;;14.59;100.00;93546.31;5153138;27;20661;-78
2022/09/18 00:38:08;;;;;;;1.70;1.40;;;;;;;14.53;100.00;93560.44;5146327;27;20293;-77
2022/09/18 00:40:35;;;;;;;3.90;1.20;;;;;;;14.18;100.00;93556.91;5153236;27;20198;-77
2022/09/18 00:43:17;;;;;;;2.17;1.20;;;;;;;14.08;100.00;93561.38;5153290;27;20199;-77
2022/09/18 00:45:51;;;;;;;3.43;0.97;;;;;;;13.91;100.00;93579.19;5153452;27;20195;-77
2022/09/18 00:48:18;;;;;;;1.43;0.97;;;;;;;13.75;100.00;93583.66;5141573;27;20207;-78
2022/09/18 00:50:45;;;;;;;1.40;1.00;;;;;;;13.77;100.00;93594.59;5152864;27;20677;-78
2022/09/18 00:53:12;;;;;;;1.20;1.10;;;;;;;13.57;100.00;93613.69;5153029;27;20226;-77
2022/09/18 00:55:41;;;;;;;2.33;1.00;;;;;;;13.45;100.00;93612.38;5152977;27;20661;-77
2022/09/18 00:58:09;;;;;;;2.67;1.10;;;;;;;13.47;100.00;93629.38;5153193;27;20207;-77
2022/09/18 01:00:35;;;;;;;4.77;1.00;;;;;;;13.29;100.00;93635.09;5153122;27;20202;-77
2022/09/18 01:03:04;;;;;;;0.80;0.80;;;;;;;13.13;100.00;93643.91;5152879;27;20206;-77
2022/09/18 01:05:47;;;;;;;0.93;0.93;;;;;;;12.81;100.00;93641.44;5153098;27;20198;-77
2022/09/18 01:08:27;;;;;;;1.10;0.90;;;;;;;12.75;100.00;93649.53;5136144;27;20273;-77
2022/09/18 01:11:08;;;;;;;2.70;0.93;;;;;;;12.55;100.00;93649.47;5146076;27;20206;-77
2022/09/18 01:13:43;;;;;;;0.80;0.80;;;;;;;12.25;100.00;93684.75;5153012;27;20210;-77
2022/09/18 01:16:20;;;;;;;1.03;0.80;;;;;;;12.05;100.00;93695.03;5152999;27;20190;-77
2022/09/18 01:18:56;;;;;;;3.37;0.87;;;;;;;11.99;100.00;93677.00;5135611;27;20202;-77
2022/09/18 01:21:30;;;;;;;2.07;0.83;;;;;;;11.85;100.00;93716.50;5143485;27;20195;-76
2022/09/18 01:24:40;;;;;;;0.73;0.70;;;;;;;11.64;100.00;93712.13;5151831;27;20210;-77
2022/09/18 01:27:09;;;;;;;0.60;0.60;;;;;;;11.42;100.00;93736.63;5151723;27;20259;-77
2022/09/18 01:29:46;;;;;;;4.17;0.90;;;;;;;11.47;100.00;93749.69;5152410;27;20665;-76
2022/09/18 01:32:21;;;;;;;1.40;0.80;;;;;;;11.43;100.00;93746.78;5152676;27;20664;-77
2022/09/18 01:34:56;;;;;;;0.80;0.80;;;;;;;11.32;100.00;93747.69;5145613;27;20205;-77
2022/09/18 01:37:30;;;;;;;0.80;0.80;;;;;;;11.35;100.00;93773.22;5152267;27;20209;-76
2022/09/18 01:40:06;;;;;;;3.43;0.80;;;;;;;11.47;100.00;93791.31;5152483;27;20572;-76
2022/09/18 01:42:35;;;;;;;0.67;0.67;;;;;;;11.39;100.00;93795.13;5152377;27;20194;-77
2022/09/18 01:45:07;;;;;;;0.70;0.70;;;;;;;11.39;100.00;93813.34;5152448;27;20676;-77
2022/09/18 01:47:41;;;;;;;0.70;0.70;;;;;;;11.30;100.00;93818.19;5150769;27;20190;-77
2022/09/18 01:50:11;;;;;;;0.70;0.70;;;;;;;11.27;100.00;93834.28;5153076;27;20204;-76
2022/09/18 01:52:42;;;;;;;0.93;0.80;;;;;;;11.11;100.00;93832.50;5151800;27;20764;-76
2022/09/18 01:55:14;;;;;;;0.63;0.63;;;;;;;10.94;100.00;93839.56;5152142;27;20199;-76
2022/09/18 01:57:48;;;;;;;0.60;0.60;;;;;;;10.84;100.00;93847.22;5152611;27;20226;-76
2022/09/18 02:00:17;;;;;;;3.40;0.60;;;;;;;10.91;100.00;93840.03;5152246;27;20198;-76
2022/09/18 02:02:48;;;;;;;0.70;0.70;;;;;;;10.85;100.00;93850.63;5152288;27;20198;-76
2022/09/18 02:05:20;;;;;;;2.00;0.57;;;;;;;10.81;100.00;93842.50;5152488;27;20191;-76
2022/09/18 02:07:53;;;;;;;0.70;0.70;;;;;;;10.67;100.00;93860.25;5152197;27;20195;-76
2022/09/18 02:10:23;;;;;;;1.20;0.80;;;;;;;10.71;100.00;93889.13;5152751;27;20203;-75
2022/09/18 02:12:53;;;;;;;1.70;1.20;;;;;;;10.76;100.00;93895.19;5152362;27;20202;-76
2022/09/18 02:15:26;;;;;;;1.17;1.07;;;;;;;10.87;100.00;93903.16;5151909;27;20622;-75
2022/09/18 02:17:56;;;;;;;0.70;0.70;;;;;;;10.87;100.00;93911.75;5147557;27;20211;-75
2022/09/18 02:20:26;;;;;;;1.17;0.80;;;;;;;10.80;100.00;93911.88;5145142;27;20653;-76
2022/09/18 02:22:57;;;;;;;0.90;0.90;;;;;;;10.80;100.00;93911.09;5151702;27;20604;-76
2022/09/18 02:25:31;;;;;;;0.90;0.90;;;;;;;10.78;100.00;93921.75;5152168;27;20195;-76
2022/09/18 02:27:58;;;;;;;0.90;0.90;;;;;;;10.80;100.00;93914.50;5151976;27;20562;-77
2022/09/18 02:30:28;;;;;;;1.00;1.00;;;;;;;10.69;100.00;93930.97;5145189;27;20209;-77
2022/09/18 02:32:56;;;;;;;0.90;0.90;;;;;;;10.70;100.00;93952.53;5152208;27;20199;-77
2022/09/18 02:35:28;;;;;;;0.97;0.97;;;;;;;10.80;100.00;93963.06;5151835;27;20271;-77
2022/09/18 02:38:02;;;;;;;1.00;1.00;;;;;;;10.69;100.00;93967.34;5148192;27;20214;-77
2022/09/18 02:40:41;;;;;;;0.90;0.90;;;;;;;10.64;100.00;93987.25;5155993;27;20598;-76
2022/09/18 02:43:34;;;;;;;1.10;1.10;;;;;;;10.66;100.00;94000.78;5155660;27;20200;-77
2022/09/18 02:46:12;;;;;;;1.33;1.20;;;;;;;10.44;100.00;93987.69;5156585;27;20199;-77
2022/09/18 02:48:51;;;;;;;1.30;1.20;;;;;;;10.34;100.00;93973.72;5155059;27;20217;-77
2022/09/18 02:51:28;;;;;;;2.63;1.20;;;;;;;10.31;100.00;93980.16;5155676;27;20672;-77
2022/09/18 02:54:02;;;;;;;2.07;1.37;;;;;;;10.20;100.00;93996.59;5156296;27;20206;-76
2022/09/18 02:56:37;;;;;;;1.60;1.50;;;;;;;10.04;100.00;93987.69;5155970;27;20568;-76
2022/09/18 02:59:10;;;;;;;1.80;1.50;;;;;;;10.09;100.00;93995.59;5156438;27;20201;-76
2022/09/18 03:01:40;;;;;;;6.40;1.97;;;;;;;10.07;100.00;93992.41;5155457;27;20202;-76
2022/09/18 03:04:11;;;;;;;1.70;1.60;;;;;;;10.05;100.00;93988.47;5156009;27;20203;-77
2022/09/18 03:06:38;;;;;;;2.03;1.70;;;;;;;10.11;100.00;93995.34;5156026;27;20191;-77
2022/09/18 03:09:05;;;;;;;3.70;2.00;;;;;;;10.03;100.00;94003.50;5156573;27;20198;-77
2022/09/18 03:11:31;;;;;;;1.70;1.60;;;;;;;9.95;100.00;94016.84;5155549;27;20202;-75
2022/09/18 03:13:58;;;;;;;1.80;1.70;;;;;;;9.88;100.00;94014.38;5155339;27;20653;-75
2022/09/18 03:16:25;;;;;;;1.60;1.50;;;;;;;9.90;100.00;94012.31;5151880;27;20194;-75
2022/09/18 03:18:53;;;;;;;1.70;1.60;;;;;;;9.84;100.00;94020.25;5147060;27;20650;-76
2022/09/18 03:21:20;;;;;;;1.80;1.70;;;;;;;9.88;100.00;94024.75;5155230;27;20214;-76
2022/09/18 03:23:48;;;;;;;3.00;1.77;;;;;;;9.82;100.00;94023.06;5155489;27;20263;-77
2022/09/18 03:26:15;;;;;;;3.30;1.87;;;;;;;9.94;100.00;94034.22;5147948;27;20211;-76
2022/09/18 03:28:43;;;;;;;1.93;1.70;;;;;;;9.95;100.00;94045.41;5155161;27;20195;-77
2022/09/18 03:31:09;;;;;;;1.80;1.70;;;;;;;9.90;100.00;94038.28;5155087;27;20251;-75
2022/09/18 03:33:36;;;;;;;5.90;1.80;;;;;;;9.91;100.00;94036.47;5154225;27;20575;-76
2022/09/18 03:36:05;;;;;;;3.30;1.73;;;;;;;9.94;100.00;94036.81;5154995;27;20302;-75
2022/09/18 03:38:33;;;;;;;4.13;1.57;;;;;;;10.05;100.00;94046.38;5154503;27;20603;-76
2022/09/18 03:41:00;;;;;;;2.23;1.60;;;;;;;10.07;100.00;94053.94;5154757;27;20558;-76
2022/09/18 03:43:27;;;;;;;1.80;1.70;;;;;;;10.01;100.00;94050.47;5154642;27;20199;-78
2022/09/18 03:45:54;;;;;;;1.80;1.70;;;;;;;9.96;100.00;94054.75;5155082;27;20207;-77
2022/09/18 03:48:21;;;;;;;1.90;1.80;;;;;;;9.84;100.00;94054.75;5150200;27;20197;-77
2022/09/18 03:50:48;;;;;;;1.80;1.70;;;;;;;9.71;100.00;94062.78;5155066;27;20259;-77
2022/09/18 03:53:17;;;;;;;1.97;1.83;;;;;;;9.72;100.00;94072.16;5153905;27;20230;-77
2022/09/18 03:55:43;;;;;;;2.20;1.90;;;;;;;9.77;100.00;94074.06;5154329;27;20199;-76
2022/09/18 03:58:10;;;;;;;2.87;2.00;;;;;;;9.72;100.00;94079.16;5154504;27;20230;-76
2022/09/18 04:00:37;;;;;;;2.17;1.97;;;;;;;9.70;100.00;94076.78;5154399;27;20194;-76
2022/09/18 04:03:04;;;;;;;2.33;2.10;;;;;;;9.78;100.00;94079.03;5154092;27;20214;-77
2022/09/18 04:05:31;;;;;;;2.20;2.00;;;;;;;9.79;100.00;94095.38;5154287;27;20630;-76
2022/09/18 04:07:58;;;;;;;2.27;2.07;;;;;;;9.88;100.00;94099.22;5154550;27;20197;-77
2022/09/18 04:10:26;;;;;;;3.07;2.40;;;;;;;9.86;100.00;94089.06;5154565;27;20245;-77
2022/09/18 04:12:54;;;;;;;2.47;2.27;;;;;;;9.99;100.00;94104.41;5154708;27;20230;-76
2022/09/18 04:15:20;;;;;;;2.57;2.37;;;;;;;10.11;100.00;94104.38;5154336;27;20209;-77
2022/09/18 04:17:47;;;;;;;2.60;2.40;;;;;;;10.12;100.00;94106.78;5145937;27;20222;-77
2022/09/18 04:20:14;;;;;;;2.83;2.53;;;;;;;10.03;100.00;94128.91;5126724;27;20218;-77
2022/09/18 04:22:41;;;;;;;2.57;2.37;;;;;;;9.99;100.00;94142.53;5148841;27;20203;-78
2022/09/18 04:25:09;;;;;;;2.50;2.30;;;;;;;9.92;100.00;94134.88;5154824;27;20245;-77
2022/09/18 04:27:37;;;;;;;2.60;2.10;;;;;;;9.96;100.00;94125.63;5153734;27;20199;-77
2022/09/18 04:30:04;;;;;;;3.10;2.67;;;;;;;9.99;100.00;94129.56;5154156;27;20203;-77
2022/09/18 04:32:31;;;;;;;2.77;2.57;;;;;;;10.10;100.00;94144.38;5154220;27;20203;-77
2022/09/18 04:34:58;;;;;;;2.50;2.30;;;;;;;10.16;100.00;94146.06;5153932;27;20205;-77
2022/09/18 04:37:27;;;;;;;7.60;2.70;;;;;;;10.15;100.00;94140.09;5153820;27;20227;-77
2022/09/18 04:39:54;;;;;;;2.50;2.30;;;;;;;10.21;100.00;94144.38;5141079;27;20255;-77
2022/09/18 04:42:21;;;;;;;3.07;2.50;;;;;;;10.26;100.00;94151.47;5154104;27;20218;-76
2022/09/18 04:44:49;;;;;;;2.90;2.60;;;;;;;10.21;100.00;94153.97;5140361;27;20210;-77
2022/09/18 04:47:16;;;;;;;5.17;2.20;;;;;;;10.08;100.00;94167.94;5136665;27;20203;-78
2022/09/18 04:49:42;;;;;;;2.27;2.07;;;;;;;9.92;100.00;94176.41;5153412;27;20203;-78
2022/09/18 04:52:09;;;;;;;2.47;2.27;;;;;;;9.81;100.00;94174.59;5153082;27;20637;-77
2022/09/18 04:54:36;;;;;;;4.73;2.40;;;;;;;9.88;100.00;94172.69;5153402;27;20198;-77
2022/09/18 04:57:04;;;;;;;2.63;2.43;;;;;;;9.99;100.00;94184.06;5147068;27;20610;-77
2022/09/18 04:59:30;;;;;;;2.40;2.20;;;;;;;9.93;100.00;94193.56;5152860;27;20203;-78
2022/09/18 05:01:59;;;;;;;2.73;2.27;;;;;;;9.91;100.00;94194.78;5153870;27;20202;-78
2022/09/18 05:04:26;;;;;;;2.40;2.20;;;;;;;9.84;100.00;94204.50;5146087;27;20221;-77
2022/09/18 05:06:53;;;;;;;2.47;2.27;;;;;;;9.98;100.00;94204.06;5153142;27;20202;-78
2022/09/18 05:09:19;;;;;;;2.30;2.10;;;;;;;10.03;100.00;94201.59;5153445;27;20198;-78
2022/09/18 05:11:46;;;;;;;2.87;2.50;;;;;;;9.95;100.00;94212.31;5133122;27;20221;-77
2022/09/18 05:14:13;;;;;;;2.97;2.40;;;;;;;9.94;100.00;94233.28;5152244;27;20206;-76
2022/09/18 05:16:40;;;;;;;3.47;2.27;;;;;;;9.79;100.00;94231.09;5153446;27;20199;-78
2022/09/18 05:19:08;;;;;;;2.50;2.30;;;;;;;9.78;100.00;94239.94;5153111;27;20226;-87
2022/09/18 05:21:35;;;;;;;2.70;2.40;;;;;;;9.72;100.00;94235.63;5146416;27;20225;-74
2022/09/18 05:24:02;;;;;;;2.40;2.20;;;;;;;9.71;100.00;94234.03;5152451;27;20209;-75
2022/09/18 05:26:30;;;;;;;2.50;2.30;;;;;;;9.75;100.00;94240.38;5152615;27;20205;-74
2022/09/18 05:28:56;;;;;;;4.47;2.27;;;;;;;9.78;100.00;94254.69;5152886;27;20195;-74
2022/09/18 05:31:23;;;;;;;3.43;2.17;;;;;;;9.84;100.00;94251.22;5152216;27;20198;-74
2022/09/18 05:33:50;;;;;;;2.63;2.40;;;;;;;9.92;100.00;94248.28;5152572;27;20646;-74
2022/09/18 05:36:18;;;;;;;2.70;2.50;;;;;;;9.79;100.00;94235.50;5152577;27;20596;-73
2022/09/18 05:38:45;;;;;;;2.77;2.50;;;;;;;9.85;100.00;94256.16;5151991;27;20735;-74
2022/09/18 05:41:12;;;;;;;2.77;2.33;;;;;;;9.90;100.00;94268.50;5152240;27;20217;-74
2022/09/18 05:43:39;;;;;;;2.90;2.60;;;;;;;9.93;100.00;94268.03;5152586;27;20210;-74
2022/09/18 05:46:06;;;;;;;2.93;2.47;;;;;;;9.86;100.00;94275.94;5152049;27;20209;-74
2022/09/18 05:48:32;;;;;;;3.23;2.93;;;;;;;9.94;100.00;94269.63;5148793;27;20202;-74
2022/09/18 05:50:59;;;;;;;3.07;2.50;;;;;;;9.92;100.00;94269.06;5152105;27;20206;-73
2022/09/18 05:53:27;;;;;;;2.93;2.50;;;;;;;9.96;100.00;94268.38;5146345;27;20234;-74
2022/09/18 05:55:54;;;;;;;3.40;3.10;;;;;;;10.01;100.00;94275.50;5152421;27;20234;-74
2022/09/18 05:58:21;;;;;;;4.70;2.83;;;;;;;10.03;100.00;94266.47;5153089;27;20719;-74
2022/09/18 06:00:50;;;;;;;3.10;2.80;;;;;;;10.17;100.00;94274.88;5152255;27;20205;-73
2022/09/18 06:03:17;;;;;;;5.17;3.80;;;;;;;9.99;100.00;94267.13;5148307;27;20302;-79
2022/09/18 06:05:51;;;;;;;2.70;2.23;;;;;;;10.08;100.00;94276.97;5149370;27;20202;-74
2022/09/18 06:08:17;;;;;;;2.90;2.60;;;;;;;9.98;100.00;94279.34;5151805;27;20202;-74
2022/09/18 06:10:46;;;;;;;2.80;2.50;;;;;;;10.12;100.00;94279.94;5152088;27;20198;-73
2022/09/18 06:13:14;;;;;;;2.73;2.50;;;;;;;10.16;100.00;94278.47;5151651;27;20230;-72
2022/09/18 06:15:44;;;;;;;3.70;2.10;;;;;;;10.05;100.00;94279.22;5151942;27;20266;-73
2022/09/18 06:18:13;;;;;;;2.80;2.13;;;;;;;10.03;100.00;94286.44;5145347;27;20321;-77
2022/09/18 06:20:40;;;;;;;2.70;1.97;;;;;;;9.94;100.00;94291.19;5151830;27;20714;-71
2022/09/18 06:23:07;;;;;;;7.33;2.20;;;;;;;9.91;100.00;94301.19;5151677;27;20199;-73
2022/09/18 06:25:34;;;;;;;2.80;2.27;;;;;;;9.97;100.00;94308.09;5151922;27;20199;-73
2022/09/18 06:28:05;;;;;;;4.73;2.60;;;;;;;10.09;100.00;94309.72;5152014;27;20206;-72
2022/09/18 06:30:34;;;;;;;2.20;2.00;;;;;;;10.19;100.00;94312.59;5146465;27;20202;-74
2022/09/18 06:33:02;;;;;;;2.60;1.90;;;;;;;10.20;100.00;94319.38;5150864;27;20218;-74
2022/09/18 06:35:29;;;;;;;4.73;2.00;;;;;;;10.28;100.00;94326.03;5151311;27;20202;-73
2022/09/18 06:38:00;;;;;;;2.73;1.80;;;;;;;10.20;100.00;94327.16;5132128;27;20218;-73
2022/09/18 06:40:27;;;;;;;2.13;1.70;;;;;;;10.21;100.00;94325.34;5138187;27;20209;-73
2022/09/18 06:42:56;;;;;;;1.93;1.73;;;;;;;10.25;100.00;94329.06;5150234;27;20202;-73
2022/09/18 06:45:24;;;;;;;2.30;2.10;;;;;;;10.31;100.00;94329.97;5151699;27;20202;-76
2022/09/18 06:47:53;;;;;;;2.93;2.10;;;;;;;10.35;100.00;94331.13;5144365;27;20198;-76
2022/09/18 06:50:20;;;;;;;3.17;2.20;;;;;;;10.50;100.00;94344.47;5151580;27;20653;-75
2022/09/18 06:52:47;;;;;;;2.37;2.00;;;;;;;10.60;100.00;94340.28;5151359;27;20249;-75
2022/09/18 06:55:14;;;;;;;2.90;2.10;;;;;;;10.67;100.00;94341.00;5151463;27;20203;-75
2022/09/18 06:57:41;;;;;;;2.23;2.03;;;;;;;10.80;100.00;94334.75;5145453;27;20203;-74
2022/09/18 07:00:10;;;;;;;4.73;2.53;;;;;;;10.91;100.00;94336.56;5150491;27;20201;-74
2022/09/18 07:02:38;;;;;;;2.57;2.20;;;;;;;10.88;97.07;94352.59;5150995;27;20195;-75
2022/09/18 07:05:05;;;;;;;3.63;2.00;;;;;;;11.00;97.03;94358.59;5150975;27;20206;-74
2022/09/18 07:07:32;;;;;;;1.73;1.63;;;;;;;10.88;93.12;94350.00;5150863;27;20203;-74
2022/09/18 07:09:59;;;;;;;1.70;1.60;;;;;;;10.79;93.51;94339.16;5150717;27;20209;-75
2022/09/18 07:12:28;;;;;;;1.80;1.70;;;;;;;10.76;93.16;94351.84;5151434;27;20199;-90
2022/09/18 07:14:55;;;;;;;1.80;1.70;;;;;;;10.83;92.23;94353.28;5139410;27;20230;-75
2022/09/18 07:17:22;;;;;;;1.63;1.53;;;;;;;10.82;93.10;94363.94;5145094;27;20195;-76
2022/09/18 07:19:50;;;;;;;2.30;1.80;;;;;;;10.82;92.33;94354.31;5150013;27;20279;-77
2022/09/18 07:22:17;;;;;;;2.43;1.90;;;;;;;10.85;92.37;94360.09;5151495;27;20199;-76
2022/09/18 07:24:44;;;;;;;1.97;1.80;;;;;;;10.89;92.45;94362.00;5150804;27;20202;-76
2022/09/18 07:27:11;;;;;;;2.57;1.83;;;;;;;11.00;92.10;94370.81;5153814;27;20198;-77
2022/09/18 07:29:38;;;;;;;2.57;2.30;;;;;;;11.09;92.62;94369.44;5143276;27;20247;-76
2022/09/18 07:32:06;;;;;;;2.00;1.80;;;;;;;11.10;92.28;94377.03;5151164;27;20202;-76
2022/09/18 07:34:33;;;;;;;2.10;1.90;;;;;;;11.21;92.78;94380.63;5154894;27;20195;-76
2022/09/18 07:37:01;;;;;;;2.27;2.07;;;;;;;11.27;92.90;94384.91;5155336;27;20209;-76
2022/09/18 07:39:28;;;;;;;2.93;2.27;;;;;;;11.32;93.67;94390.22;5154189;27;20229;-74
2022/09/18 07:41:55;;;;;;;3.43;2.50;;;;;;;11.39;92.58;94386.50;5154846;27;20687;-76
2022/09/18 07:44:22;;;;;;;5.03;2.03;;;;;;;11.40;92.30;94388.06;5154527;27;20229;-74
2022/09/18 07:46:49;;;;;;;2.53;1.93;;;;;;;11.48;90.59;94384.31;5154454;27;20559;-76
2022/09/18 07:49:16;;;;;;;4.17;2.00;;;;;;;11.28;89.95;94387.28;5152584;27;20195;-74
2022/09/18 07:51:43;;;;;;;2.07;1.87;;;;;;;11.21;90.91;94391.81;5154018;27;20245;-74
2022/09/18 07:54:11;;;;;;;1.70;1.60;;;;;;;11.25;89.20;94387.75;5154666;27;20195;-73
2022/09/18 07:56:38;;;;;;;3.73;1.97;;;;;;;11.21;89.63;94385.81;5154761;27;20206;-74
2022/09/18 07:59:05;;;;;;;1.90;1.70;;;;;;;11.22;91.12;94390.03;5154270;27;20223;-74
2022/09/18 08:01:33;;;;;;;1.90;1.70;;;;;;;11.28;89.52;94392.47;5153957;27;20209;-77
2022/09/18 08:04:02;;;;;;;2.50;2.20;;;;;;;11.33;91.05;94399.63;5138578;27;20293;-74
2022/09/18 08:06:30;;;;;;;2.83;1.90;;;;;;;11.30;89.13;94397.47;5148654;27;20261;-73
2022/09/18 08:08:57;;;;;;;4.30;1.90;;;;;;;11.37;89.60;94390.31;5153678;27;20190;-72
2022/09/18 08:11:25;;;;;;;1.87;1.73;;;;;;;11.42;89.46;94384.44;5154089;27;20213;-74
2022/09/18 08:13:52;;;;;;;2.07;1.87;;;;;;;11.41;88.12;94401.88;5152887;27;20205;-74
2022/09/18 08:16:20;;;;;;;6.00;1.80;;;;;;;11.48;88.74;94404.34;5154317;27;20199;-77
2022/09/18 08:18:47;;;;;;;2.30;1.93;;;;;;;11.54;89.34;94395.63;5148093;27;20218;-76
2022/09/18 08:21:14;;;;;;;2.07;1.90;;;;;;;11.69;88.82;94393.31;5151638;27;20764;-78
2022/09/18 08:23:41;;;;;;;2.77;1.93;;;;;;;11.76;87.55;94388.81;5151293;27;20648;-77
2022/09/18 08:26:08;;;;;;;2.90;2.03;;;;;;;11.75;86.98;94382.00;5153945;27;20225;-74
2022/09/18 08:28:37;;;;;;;2.30;2.10;;;;;;;11.94;88.35;94386.03;5153518;27;20206;-72
2022/09/18 08:31:04;;;;;;;3.77;2.10;;;;;;;12.12;88.48;94395.47;5135504;27;20214;-72
2022/09/18 08:33:30;;;;;;;2.00;1.80;;;;;;;12.27;86.21;94385.28;5132371;27;20199;-71
2022/09/18 08:35:57;;;;;;;5.17;1.87;;;;;;;12.19;87.23;94401.31;5150903;27;20287;-71
2022/09/18 08:38:24;;;;;;;2.67;2.17;;;;;;;12.31;89.45;94392.44;5153257;27;20231;-71
2022/09/18 08:41:18;;;;;;;3.50;2.40;;;;;;;12.60;88.43;94389.75;5147484;27;20222;-70
2022/09/18 08:43:55;;;;;;;2.70;2.20;;;;;;;12.83;86.39;94407.88;5153162;27;20657;-71
2022/09/18 08:46:30;;;;;;;2.10;1.70;;;;;;;12.82;85.52;94414.09;5127733;27;20633;-71
2022/09/18 08:49:06;;;;;;;2.83;1.80;;;;;;;12.75;86.48;94405.66;5147527;27;20194;-69
2022/09/18 08:51:37;;;;;;;5.17;2.90;;;;;;;12.94;95.27;94409.59;5152763;27;20337;-73
2022/09/18 08:54:22;;;;;;;1.77;1.67;;;;;;;12.90;85.19;94419.69;5153227;27;20209;-75
2022/09/18 08:56:51;;;;;;;2.13;1.93;;;;;;;12.92;85.82;94416.88;5150078;27;20196;-75
2022/09/18 08:59:29;;;;;;;2.60;2.13;;;;;;;13.10;86.90;94424.50;5149779;27;20707;-75
2022/09/18 09:02:09;;;;;;;3.33;2.40;;;;;;;12.96;84.01;94434.41;5153426;27;20190;-75
2022/09/18 09:04:36;;;;;;;2.20;2.00;;;;;;;12.85;83.55;94431.88;5153316;27;20634;-74
2022/09/18 09:07:19;;;;;;;5.90;2.03;;;;;;;12.84;83.20;94435.53;5153044;27;20203;-75
2022/09/18 09:10:03;;;;;;;2.50;1.70;;;;;;;12.95;82.37;94427.63;5152926;27;20194;-74
2022/09/18 09:12:37;;;;;;;1.80;1.70;;;;;;;12.92;81.51;94435.94;5148986;27;20205;-74
2022/09/18 09:15:20;;;;;;;2.00;1.80;;;;;;;12.80;84.15;94429.19;5143722;27;20194;-77
2022/09/18 09:17:56;;;;;;;2.10;1.90;;;;;;;12.87;81.79;94445.50;5151775;27;20210;-74
2022/09/18 09:20:25;;;;;;;2.33;1.77;;;;;;;12.79;82.10;94451.88;5155957;27;20234;-76
2022/09/18 09:23:01;;;;;;;2.10;1.90;;;;;;;12.99;83.41;94449.59;5156837;27;20202;-75
2022/09/18 09:25:38;;;;;;;2.13;1.70;;;;;;;12.98;82.13;94447.22;5157256;27;20194;-80
2022/09/18 09:28:14;;;;;;;3.47;2.30;;;;;;;13.07;81.46;94464.06;5158020;27;20618;-86
2022/09/18 09:30:46;;;;;;;2.43;2.20;;;;;;;12.89;80.52;94459.88;5150143;27;20570;-77
2022/09/18 09:33:21;;;;;;;2.20;2.00;;;;;;;12.68;81.30;94472.81;5153735;27;20206;-77
2022/09/18 09:35:52;;;;;;;2.40;1.83;;;;;;;12.59;80.81;94475.00;5153254;27;20255;-77
2022/09/18 09:38:31;;;;;;;3.57;2.60;;;;;;;12.61;81.65;94480.75;5151996;27;20202;-76
2022/09/18 09:41:06;;;;;;;4.07;2.30;;;;;;;12.75;80.16;94481.28;5152658;27;20249;-76
2022/09/18 09:43:39;;;;;;;6.57;2.50;;;;;;;12.72;80.38;94487.75;5152476;27;20194;-79
2022/09/18 09:46:14;;;;;;;3.50;2.30;;;;;;;12.87;81.10;94488.00;5152202;27;20205;-77
2022/09/18 09:48:50;;;;;;;2.73;2.40;;;;;;;12.92;81.70;94492.53;5140956;27;20198;-77
2022/09/18 09:51:25;;;;;;;3.17;2.60;;;;;;;12.94;80.67;94498.28;5152187;27;20308;-78
2022/09/18 09:53:54;;;;;;;6.90;3.10;;;;;;;12.85;81.99;94491.88;5138399;27;20194;-76
2022/09/18 09:56:30;;;;;;;6.03;3.47;;;;;;;12.86;82.33;94491.66;5152294;27;20207;-75
2022/09/18 09:59:04;;;;;;;5.53;4.07;;;;;;;12.96;82.13;94504.84;5152128;27;20202;-77
2022/09/18 10:01:40;;;;;;;5.20;4.70;;;;;;;12.84;81.55;94493.69;5151954;27;20564;-77
2022/09/18 10:04:20;;;;;;;4.63;4.03;;;;;;;12.80;81.86;94495.19;5152193;27;20198;-77
2022/09/18 10:06:53;;;;;;;6.23;4.53;;;;;;;12.74;82.31;94488.31;5133706;27;20681;-78
2022/09/18 10:09:31;;;;;;;5.17;4.20;;;;;;;12.75;83.21;94505.53;5140580;27;20190;-76
2022/09/18 10:12:04;;;;;;;5.03;4.53;;;;;;;12.77;84.20;94495.66;5132645;27;20580;-76
2022/09/18 10:14:35;;;;;;;5.60;4.00;;;;;;;12.71;82.36;94501.00;5145647;27;20190;-76
2022/09/18 10:17:05;;;;;;;7.87;5.70;;;;;;;12.62;82.96;94498.00;5151510;27;20206;-77
2022/09/18 10:19:36;;;;;;;9.87;6.93;;;;;;;12.65;83.67;94520.19;5151794;27;20325;-76
2022/09/18 10:22:06;;;;;;;10.03;7.33;;;;;;;12.65;83.81;94504.56;5152127;27;20214;-76
2022/09/18 10:24:44;;;;;;;9.57;7.00;;;;;;;12.92;83.38;94516.00;5152223;27;20202;-77
2022/09/18 10:27:12;;;;;;;5.93;4.70;;;;;;;12.91;82.88;94514.41;5151691;27;20226;-76
2022/09/18 10:29:39;;;;;;;5.67;4.80;;;;;;;13.03;82.24;94520.34;5151787;27;20641;-77
2022/09/18 10:32:10;;;;;;;5.63;4.10;;;;;;;13.02;81.25;94521.38;5144575;27;20255;-76
2022/09/18 10:34:42;;;;;;;6.93;4.30;;;;;;;13.17;80.72;94524.25;5152085;27;20259;-74
2022/09/18 10:37:16;;;;;;;4.97;4.10;;;;;;;13.56;79.97;94522.53;5152541;27;20199;-76
2022/09/18 10:39:51;;;;;;;5.83;4.77;;;;;;;13.91;78.75;94532.69;5150816;27;20229;-77
2022/09/18 10:42:21;;;;;;;5.83;4.60;;;;;;;14.36;76.46;94522.03;5152662;27;20208;-81
2022/09/18 10:44:52;;;;;;;6.60;4.60;;;;;;;14.63;75.77;94528.09;5152467;27;20199;-76
2022/09/18 10:47:25;;;;;;;5.97;4.90;;;;;;;15.09;75.67;94529.31;5147311;27;20231;-74
2022/09/18 10:49:55;;;;;;;5.43;4.83;;;;;;;15.27;74.25;94529.72;5151607;27;20645;-74
2022/09/18 10:52:34;;;;;;;5.77;4.43;;;;;;;14.98;73.50;94549.34;5151579;27;20299;-74
2022/09/18 10:55:19;;;;;;;6.03;4.60;;;;;;;14.09;75.83;94535.78;5151343;27;20195;-73
2022/09/18 10:58:07;;;;;;;7.63;5.10;;;;;;;13.73;77.23;94538.97;5152510;27;20202;-78
2022/09/18 11:00:44;;;;;;;6.30;5.10;;;;;;;13.20;78.65;94536.84;5155288;27;20700;-78
2022/09/18 11:03:30;;;;;;;4.83;4.40;;;;;;;12.95;79.37;94521.53;5149179;27;20217;-78
2022/09/18 11:05:59;;;;;;;6.20;4.93;;;;;;;12.93;79.97;94546.25;5137765;27;20206;-78
2022/09/18 11:08:29;;;;;;;5.47;4.97;;;;;;;13.01;80.42;94541.47;5154347;27;20199;-77
2022/09/18 11:11:02;;;;;;;6.07;5.47;;;;;;;13.09;80.43;94553.34;5155730;27;20656;-77
2022/09/18 11:13:30;;;;;;;6.00;4.20;;;;;;;13.11;79.89;94547.88;5155094;27;20198;-77
2022/09/18 11:15:59;;;;;;;5.17;4.63;;;;;;;13.07;78.88;94550.16;5155251;27;20202;-76
2022/09/18 11:18:29;;;;;;;4.50;3.70;;;;;;;13.03;77.66;94549.03;5153937;27;20294;-76
2022/09/18 11:20:58;;;;;;;4.27;3.87;;;;;;;13.10;78.34;94543.72;5155039;27;20223;-76
2022/09/18 11:23:28;;;;;;;5.77;4.47;;;;;;;13.11;79.09;94538.25;5154815;27;20259;-75
2022/09/18 11:26:15;;;;;;;7.47;4.30;;;;;;;13.23;78.86;94544.19;5136099;27;20220;-75
2022/09/18 11:28:42;;;;;;;4.40;3.53;;;;;;;13.28;76.61;94540.88;5151205;27;20201;-77
2022/09/18 11:31:15;;;;;;;5.20;3.60;;;;;;;13.32;76.23;94545.38;5154853;27;20195;-77
2022/09/18 11:33:47;;;;;;;4.73;3.13;;;;;;;13.43;74.82;94554.16;5155239;27;20208;-77
2022/09/18 11:36:26;;;;;;;3.50;3.20;;;;;;;13.21;75.41;94548.06;5154108;27;20707;-77
2022/09/18 11:38:53;;;;;;;5.47;3.07;;;;;;;13.17;75.80;94544.34;5154622;27;20205;-76
2022/09/18 11:41:26;;;;;;;6.83;3.47;;;;;;;13.25;77.03;94551.78;5154349;27;20303;-77
2022/09/18 11:44:02;;;;;;;7.27;3.50;;;;;;;13.39;76.98;94546.00;5147747;27;20194;-77